• Join FlightAware (Why Join?)
  • Login
  • US Flag 
10:47AM EDT


 

Airport Tracker/Info


-or-


 

Live Flight TrackerFlight Track Log ✈ N53RT ✈ 13-May-2013 ✈ KDSM - KCGI

Flight Track Log - Related Links

Times and Time Zones

All times are in EDT time to prevent confusion due to time zone crossing. See the N53RT flight status page for this flight to view local times or setup timezone preferences in your user account.

Time Position Orientation Groundspeed Altitude Reporting Facility
EDT Latitude Longitude Course Direction KTS MPH feet Rate Location/Type
06:49AM 41.5347 -93.6589 187° South 106 122 1,500  Level Minneapolis Center
06:50AM 41.5014 -93.6647 187° South 135 155 2,800 960 Climbing Minneapolis Center
06:51AM 41.4703 -93.6286 139° Southeast 150 173 3,700 780 Climbing Minneapolis Center
06:52AM 41.4381 -93.6100 157° South 157 181 4,300 660 Climbing Minneapolis Center
06:53AM 41.4025 -93.5719 141° Southeast 164 189 5,000 540 Climbing Minneapolis Center
06:54AM 41.3667 -93.5294 138° Southeast 172 198 5,500 540 Climbing Minneapolis Center
06:55AM 41.3275 -93.4894 143° Southeast 178 205 6,100 540 Climbing Minneapolis Center
06:56AM 41.2853 -93.4450 142° Southeast 180 207 6,600 480 Climbing Minneapolis Center
06:57AM 41.2453 -93.4036 142° Southeast 183 211 7,100 420 Climbing Minneapolis Center
06:58AM 41.2039 -93.3611 142° Southeast 187 215 7,500 360 Climbing Minneapolis Center
06:59AM 41.1611 -93.3172 142° Southeast 194 223 7,900 420 Climbing Minneapolis Center
07:00AM 41.1178 -93.2736 143° Southeast 196 226 8,400 420 Climbing Minneapolis Center
07:01AM 41.0694 -93.2253 143° Southeast 201 231 8,800 300 Climbing Minneapolis Center
07:02AM 41.0264 -93.1783 141° Southeast 202 232 9,100 120 Climbing Minneapolis Center
07:03AM 40.9789 -93.1322 144° Southeast 212 244 9,100  Level Minneapolis Center
07:04AM 40.9319 -93.0839 142° Southeast 215 247 9,100  Level Minneapolis Center
07:05AM 40.8844 -93.0353 142° Southeast 216 249 9,100  Level Minneapolis Center
07:06AM 40.8419 -92.9958 145° Southeast 219 252 9,100  Level Minneapolis Center
07:07AM 40.7947 -92.9475 142° Southeast 216 249 9,100  Level Minneapolis Center
07:08AM 40.7464 -92.8986 143° Southeast 218 251 9,100  Level Minneapolis Center
07:09AM 40.6889 -92.8414 143° Southeast 218 251 9,100  Level Minneapolis Center
07:10AM 40.6414 -92.7936 143° Southeast 217 250 9,100  Level Minneapolis Center
07:11AM 40.5939 -92.7456 142° Southeast 217 250 9,100  Level Minneapolis Center
07:12AM 40.5456 -92.6978 143° Southeast 217 250 9,100  Level Minneapolis Center
07:13AM 40.4983 -92.6506 143° Southeast 216 249 9,100  Level Minneapolis Center
07:14AM 40.4503 -92.6022 143° Southeast 216 249 9,100  Level Minneapolis Center
07:15AM 40.4031 -92.5544 142° Southeast 216 249 9,100  Level Minneapolis Center
07:16AM 40.3544 -92.5064 143° Southeast 216 249 9,100  Level Minneapolis Center
07:17AM 40.3058 -92.4583 143° Southeast 215 247 9,100  Level Minneapolis Center
07:18AM 40.2578 -92.4111 143° Southeast 215 247 9,100  Level Kansas City Center
07:19AM 40.2097 -92.3636 143° Southeast 216 249 9,100  Level Kansas City Center
07:20AM 40.1619 -92.3156 142° Southeast 217 250 9,100  Level Kansas City Center
07:21AM 40.1136 -92.2683 143° Southeast 217 250 9,100  Level Kansas City Center
07:22AM 40.0656 -92.2206 143° Southeast 217 250 9,100  Level Kansas City Center
07:23AM 40.0169 -92.1731 143° Southeast 218 251 9,100  Level Kansas City Center
07:24AM 39.9589 -92.1167 143° Southeast 218 251 9,100  Level Kansas City Center
07:25AM 39.9103 -92.0689 143° Southeast 219 252 9,100  Level Kansas City Center
07:26AM 39.8606 -92.0214 144° Southeast 221 254 9,100  Level Kansas City Center
07:27AM 39.8133 -91.9739 142° Southeast 219 252 9,100  Level Kansas City Center
07:28AM 39.7656 -91.9264 143° Southeast 217 250 9,100  Level Kansas City Center
07:29AM 39.7169 -91.8797 144° Southeast 217 250 9,100  Level Kansas City Center
07:30AM 39.6678 -91.8333 144° Southeast 218 251 9,100 -60 Level Kansas City Center
07:31AM 39.6189 -91.7867 144° Southeast 219 252 9,000 -60 Descending Kansas City Center
07:32AM 39.5711 -91.7383 142° Southeast 218 251 9,000  Level Kansas City Center
07:33AM 39.5231 -91.6911 143° Southeast 217 250 9,000  Level Kansas City Center
07:34AM 39.4722 -91.6417 143° Southeast 218 251 9,000  Level Kansas City Center
07:35AM 39.4225 -91.5956 144° Southeast 219 252 9,000  Level Kansas City Center
07:36AM 39.3739 -91.5486 143° Southeast 218 251 9,000  Level Kansas City Center
07:37AM 39.3147 -91.4931 144° Southeast 219 252 9,000  Level Kansas City Center
07:38AM 39.2656 -91.4467 144° Southeast 218 251 9,000  Level Kansas City Center
07:39AM 39.2172 -91.3994 143° Southeast 219 252 9,000  Level Kansas City Center
07:40AM 39.1686 -91.3525 143° Southeast 219 252 9,000  Level Kansas City Center
07:41AM 39.1197 -91.3061 144° Southeast 219 252 9,100  Climbing Kansas City Center
07:42AM 39.0703 -91.2597 144° Southeast 219 252 9,100  Level Kansas City Center
07:43AM 39.0214 -91.2133 144° Southeast 219 252 9,100  Level Kansas City Center
07:44AM 38.9717 -91.1669 144° Southeast 220 253 9,100  Level Kansas City Center
07:45AM 38.9225 -91.1206 144° Southeast 221 254 9,100  Level Kansas City Center
07:46AM 38.8733 -91.0744 144° Southeast 220 253 9,100  Level Kansas City Center
07:47AM 38.8133 -91.0189 144° Southeast 221 254 9,100  Level Kansas City Center
07:48AM 38.7642 -90.9719 143° Southeast 222 255 9,100  Level Kansas City Center
07:49AM 38.7144 -90.9250 144° Southeast 222 255 9,100  Level Kansas City Center
07:50AM 38.6644 -90.8792 144° Southeast 223 257 9,100  Level Kansas City Center
07:51AM 38.6144 -90.8322 144° Southeast 223 257 9,100  Level Kansas City Center
07:52AM 38.5639 -90.7858 144° Southeast 224 258 9,100  Level Kansas City Center
07:53AM 38.5144 -90.7392 144° Southeast 223 257 9,100  Level Kansas City Center
07:54AM 38.4647 -90.6928 144° Southeast 223 257 9,100  Level Kansas City Center
07:55AM 38.4147 -90.6469 144° Southeast 223 257 9,100  Level Kansas City Center
07:56AM 38.3544 -90.5922 145° Southeast 222 255 9,100  Level Kansas City Center
07:58AM 38.3050 -90.5453 143° Southeast 222 255 9,100  Level Kansas City Center
07:59AM 38.2550 -90.4992 144° Southeast 222 255 9,100  Level Kansas City Center
08:00AM 38.2050 -90.4522 144° Southeast 223 257 9,100  Level Kansas City Center
08:01AM 38.1547 -90.4061 144° Southeast 224 258 9,100  Level Kansas City Center
08:02AM 38.1039 -90.3589 144° Southeast 226 260 9,100  Level Kansas City Center
08:03AM 38.0539 -90.3125 144° Southeast 224 258 9,100  Level Kansas City Center
08:04AM 38.0031 -90.2667 145° Southeast 225 259 9,100 -240 Level Kansas City Center
08:05AM 37.9511 -90.2192 144° Southeast 229 264 8,700 -480 Descending Kansas City Center
08:06AM 37.8881 -90.1572 142° Southeast 238 274 8,200 -540 Descending Kansas City Center
08:07AM 37.8350 -90.1114 146° Southeast 234 269 7,700 -480 Descending Kansas City Center
08:08AM 37.7806 -90.0625 145° Southeast 239 275 7,300 -420 Descending Kansas City Center
08:09AM 37.7283 -90.0133 143° Southeast 237 273 6,900 -480 Descending Kansas City Center
08:10AM 37.6733 -89.9694 148° Southeast 236 272 6,400 -480 Descending Kansas City Center
08:11AM 37.6167 -89.9269 149° Southeast 238 274 6,000 -540 Descending Kansas City Center
08:12AM 37.5644 -89.8725 140° Southeast 233 268 5,400 -540 Descending Kansas City Center
08:13AM 37.5131 -89.8264 145° Southeast 229 264 5,000 -480 Descending Kansas City Center
08:14AM 37.4622 -89.7822 145° Southeast 224 258 4,500 -660 Descending Kansas City Center
08:15AM 37.4128 -89.7411 147° Southeast 217 250 3,700 -600 Descending Kansas City Center
08:16AM 37.3672 -89.7061 149° Southeast 197 227 3,400 -300 Descending Kansas City Center
08:17AM 37.3200 -89.6783 155° Southeast 161 185 3,100 -540 Descending Kansas City Center
08:18AM 37.2853 -89.6586 156° South 146 168 2,400 -780 Descending Kansas City Center
08:19AM 37.2528 -89.6344 149° Southeast 138 159 1,600 -840 Descending Kansas City Center
08:20AM 37.2333 -89.6064 131° Southeast 120 138 800 -540 Descending Kansas City Center
08:21AM 37.2269 -89.5764 105° East 113 130 600 -240 Descending Kansas City Center